sensor_id;sensor_type;location;lat;lon;timestamp;pressure;altitude;pressure_sealevel;temperature;humidity
54920;BME280;63804;53.120;8.764;2022-11-15T00:00:25;101102.84;;;9.26;50.91
54920;BME280;63804;53.120;8.764;2022-11-15T00:02:52;101108.50;;;9.12;51.04
54920;BME280;63804;53.120;8.764;2022-11-15T00:05:18;101109.09;;;9.18;50.83
54920;BME280;63804;53.120;8.764;2022-11-15T00:07:44;101108.94;;;9.23;50.75
54920;BME280;63804;53.120;8.764;2022-11-15T00:10:10;101100.13;;;9.26;50.77
54920;BME280;63804;53.120;8.764;2022-11-15T00:12:35;101096.75;;;9.29;50.51
54920;BME280;63804;53.120;8.764;2022-11-15T00:15:01;101097.72;;;9.24;50.73
54920;BME280;63804;53.120;8.764;2022-11-15T00:17:27;101092.63;;;9.14;51.09
54920;BME280;63804;53.120;8.764;2022-11-15T00:19:52;101094.69;;;9.17;50.88
54920;BME280;63804;53.120;8.764;2022-11-15T00:22:18;101092.94;;;9.13;51.05
54920;BME280;63804;53.120;8.764;2022-11-15T00:24:44;101096.94;;;9.06;51.13
54920;BME280;63804;53.120;8.764;2022-11-15T00:27:09;101097.59;;;9.12;51.30
54920;BME280;63804;53.120;8.764;2022-11-15T00:29:35;101097.91;;;9.11;50.91
54920;BME280;63804;53.120;8.764;2022-11-15T00:32:03;101100.81;;;9.05;51.16
54920;BME280;63804;53.120;8.764;2022-11-15T00:34:28;101100.50;;;9.07;51.04
54920;BME280;63804;53.120;8.764;2022-11-15T00:36:54;101104.97;;;9.03;51.30
54920;BME280;63804;53.120;8.764;2022-11-15T00:39:20;101112.38;;;8.94;51.74
54920;BME280;63804;53.120;8.764;2022-11-15T00:41:45;101115.56;;;8.96;51.58
54920;BME280;63804;53.120;8.764;2022-11-15T00:44:11;101115.88;;;8.94;51.46
54920;BME280;63804;53.120;8.764;2022-11-15T00:46:36;101117.47;;;9.04;51.13
54920;BME280;63804;53.120;8.764;2022-11-15T00:49:02;101119.22;;;9.00;51.27
54920;BME280;63804;53.120;8.764;2022-11-15T00:51:28;101117.13;;;9.14;51.23
54920;BME280;63804;53.120;8.764;2022-11-15T00:53:54;101113.28;;;9.15;50.85
54920;BME280;63804;53.120;8.764;2022-11-15T00:56:19;101120.66;;;9.23;50.94
54920;BME280;63804;53.120;8.764;2022-11-15T00:58:45;101126.56;;;9.25;50.71
54920;BME280;63804;53.120;8.764;2022-11-15T01:01:13;101110.53;;;9.24;50.68
54920;BME280;63804;53.120;8.764;2022-11-15T01:03:40;101114.22;;;9.19;50.97
54920;BME280;63804;53.120;8.764;2022-11-15T01:06:07;101108.59;;;9.24;50.64
54920;BME280;63804;53.120;8.764;2022-11-15T01:08:33;101111.03;;;9.17;50.91
54920;BME280;63804;53.120;8.764;2022-11-15T01:11:03;101110.56;;;9.15;51.04
54920;BME280;63804;53.120;8.764;2022-11-15T01:13:31;101110.25;;;9.17;50.91
54920;BME280;63804;53.120;8.764;2022-11-15T01:15:57;101108.03;;;9.10;51.07
54920;BME280;63804;53.120;8.764;2022-11-15T01:18:23;101112.16;;;9.16;50.95
54920;BME280;63804;53.120;8.764;2022-11-15T01:20:48;101106.22;;;9.14;51.03
54920;BME280;63804;53.120;8.764;2022-11-15T01:23:14;101102.91;;;9.08;50.94
54920;BME280;63804;53.120;8.764;2022-11-15T01:25:39;101103.06;;;8.95;51.32
54920;BME280;63804;53.120;8.764;2022-11-15T01:28:05;101105.00;;;8.85;51.43
54920;BME280;63804;53.120;8.764;2022-11-15T01:30:31;101098.59;;;8.81;51.70
54920;BME280;63804;53.120;8.764;2022-11-15T01:32:56;101094.28;;;8.80;51.68
54920;BME280;63804;53.120;8.764;2022-11-15T01:35:22;101089.63;;;8.89;51.43
54920;BME280;63804;53.120;8.764;2022-11-15T01:37:48;101087.41;;;8.92;51.36
54920;BME280;63804;53.120;8.764;2022-11-15T01:40:14;101088.03;;;8.88;51.30
54920;BME280;63804;53.120;8.764;2022-11-15T01:42:40;101085.78;;;8.90;51.41
54920;BME280;63804;53.120;8.764;2022-11-15T01:45:12;101081.13;;;8.91;51.21
54920;BME280;63804;53.120;8.764;2022-11-15T01:47:41;101072.19;;;8.82;51.52
54920;BME280;63804;53.120;8.764;2022-11-15T01:50:18;101063.72;;;8.83;51.29
54920;BME280;63804;53.120;8.764;2022-11-15T01:52:46;101055.03;;;8.81;51.19
54920;BME280;63804;53.120;8.764;2022-11-15T01:55:30;101057.28;;;8.79;51.59
54920;BME280;63804;53.120;8.764;2022-11-15T01:58:00;101057.13;;;8.76;51.57
54920;BME280;63804;53.120;8.764;2022-11-15T02:00:28;101055.22;;;8.76;51.25
54920;BME280;63804;53.120;8.764;2022-11-15T02:02:54;101050.25;;;8.78;51.24
54920;BME280;63804;53.120;8.764;2022-11-15T02:05:20;101044.97;;;8.73;51.30
54920;BME280;63804;53.120;8.764;2022-11-15T02:07:47;101049.75;;;8.76;51.43
54920;BME280;63804;53.120;8.764;2022-11-15T02:10:19;101040.47;;;8.86;51.05
54920;BME280;63804;53.120;8.764;2022-11-15T02:12:46;101032.31;;;8.86;51.07
54920;BME280;63804;53.120;8.764;2022-11-15T02:15:13;101037.25;;;8.93;51.06
54920;BME280;63804;53.120;8.764;2022-11-15T02:29:35;101037.31;;;9.22;50.81
54920;BME280;63804;53.120;8.764;2022-11-15T02:37:16;101031.44;;;9.50;50.37
54920;BME280;63804;53.120;8.764;2022-11-15T02:42:43;101028.72;;;9.59;50.24
54920;BME280;63804;53.120;8.764;2022-11-15T02:45:36;101032.69;;;9.61;50.11
54920;BME280;63804;53.120;8.764;2022-11-15T02:48:06;101032.69;;;9.61;50.25
54920;BME280;63804;53.120;8.764;2022-11-15T02:50:33;101030.28;;;9.60;50.37
54920;BME280;63804;53.120;8.764;2022-11-15T02:52:59;101036.03;;;9.67;49.93
54920;BME280;63804;53.120;8.764;2022-11-15T03:00:50;101028.47;;;9.73;50.26
54920;BME280;63804;53.120;8.764;2022-11-15T03:03:25;101034.44;;;9.66;50.30
54920;BME280;63804;53.120;8.764;2022-11-15T03:11:24;101029.88;;;9.79;50.06
54920;BME280;63804;53.120;8.764;2022-11-15T03:17:23;101019.91;;;9.83;50.58
54920;BME280;63804;53.120;8.764;2022-11-15T03:19:57;101023.09;;;9.85;50.58
54920;BME280;63804;53.120;8.764;2022-11-15T03:22:41;101023.09;;;9.85;50.94
54920;BME280;63804;53.120;8.764;2022-11-15T03:25:12;101024.50;;;9.91;50.51
54920;BME280;63804;53.120;8.764;2022-11-15T03:27:43;101017.78;;;9.89;50.74
54920;BME280;63804;53.120;8.764;2022-11-15T03:30:12;101015.97;;;9.93;50.87
54920;BME280;63804;53.120;8.764;2022-11-15T03:32:44;101020.19;;;9.90;51.01
54920;BME280;63804;53.120;8.764;2022-11-15T03:35:13;101010.53;;;9.93;50.94
54920;BME280;63804;53.120;8.764;2022-11-15T03:38:05;101010.53;;;9.93;51.43
54920;BME280;63804;53.120;8.764;2022-11-15T03:40:38;101011.00;;;9.95;50.96
54920;BME280;63804;53.120;8.764;2022-11-15T03:43:15;101005.22;;;9.96;51.29
54920;BME280;63804;53.120;8.764;2022-11-15T03:46:02;101007.59;;;9.98;51.38
54920;BME280;63804;53.120;8.764;2022-11-15T03:48:35;101000.84;;;10.04;51.03
54920;BME280;63804;53.120;8.764;2022-11-15T03:51:04;101002.44;;;10.05;51.20
54920;BME280;63804;53.120;8.764;2022-11-15T03:53:30;101000.84;;;10.04;51.16
54920;BME280;63804;53.120;8.764;2022-11-15T03:55:57;100994.59;;;10.04;51.03
54920;BME280;63804;53.120;8.764;2022-11-15T03:58:29;100996.03;;;10.01;51.13
54920;BME280;63804;53.120;8.764;2022-11-15T04:00:54;100990.25;;;10.03;51.19
54920;BME280;63804;53.120;8.764;2022-11-15T04:03:20;100996.81;;;10.01;51.36
54920;BME280;63804;53.120;8.764;2022-11-15T04:05:45;100993.31;;;10.01;51.64
54920;BME280;63804;53.120;8.764;2022-11-15T04:08:11;100999.22;;;10.03;51.84
54920;BME280;63804;53.120;8.764;2022-11-15T04:10:37;100999.34;;;10.07;51.68
54920;BME280;63804;53.120;8.764;2022-11-15T04:13:03;100987.31;;;10.08;51.73
54920;BME280;63804;53.120;8.764;2022-11-15T04:15:28;100990.06;;;10.08;51.70
54920;BME280;63804;53.120;8.764;2022-11-15T04:17:56;100988.59;;;10.10;51.33
54920;BME280;63804;53.120;8.764;2022-11-15T04:20:30;100990.06;;;10.08;51.79
54920;BME280;63804;53.120;8.764;2022-11-15T04:23:17;101000.75;;;10.13;51.44
54920;BME280;63804;53.120;8.764;2022-11-15T04:26:03;101000.84;;;10.04;51.99
54920;BME280;63804;53.120;8.764;2022-11-15T04:28:30;100986.88;;;10.06;51.76
54920;BME280;63804;53.120;8.764;2022-11-15T04:30:56;100996.63;;;10.07;51.78
54920;BME280;63804;53.120;8.764;2022-11-15T04:33:22;100998.69;;;10.10;51.72
54920;BME280;63804;53.120;8.764;2022-11-15T04:35:48;101003.34;;;10.09;51.79
54920;BME280;63804;53.120;8.764;2022-11-15T04:38:34;101008.94;;;10.13;52.01
54920;BME280;63804;53.120;8.764;2022-11-15T04:41:00;101005.09;;;10.14;51.73
54920;BME280;63804;53.120;8.764;2022-11-15T04:43:26;101006.81;;;10.18;51.75
54920;BME280;63804;53.120;8.764;2022-11-15T04:45:51;101008.06;;;10.21;51.63
54920;BME280;63804;53.120;8.764;2022-11-15T04:48:17;101001.00;;;10.20;51.77
54920;BME280;63804;53.120;8.764;2022-11-15T04:50:43;101000.69;;;10.22;51.75
54920;BME280;63804;53.120;8.764;2022-11-15T04:53:08;101001.00;;;10.20;51.68
54920;BME280;63804;53.120;8.764;2022-11-15T04:55:34;100997.16;;;10.21;51.97
54920;BME280;63804;53.120;8.764;2022-11-15T04:58:01;100999.22;;;10.24;51.55
54920;BME280;63804;53.120;8.764;2022-11-15T05:00:28;100992.66;;;10.25;51.90
54920;BME280;63804;53.120;8.764;2022-11-15T05:02:55;100997.28;;;10.25;51.84
54920;BME280;63804;53.120;8.764;2022-11-15T05:05:42;101000.13;;;10.28;51.70
54920;BME280;63804;53.120;8.764;2022-11-15T05:08:08;100995.97;;;10.31;51.58
54920;BME280;63804;53.120;8.764;2022-11-15T05:10:34;100998.56;;;10.27;51.85
54920;BME280;63804;53.120;8.764;2022-11-15T05:12:59;100999.03;;;10.29;52.12
54920;BME280;63804;53.120;8.764;2022-11-15T05:15:25;100996.28;;;10.29;52.08
54920;BME280;63804;53.120;8.764;2022-11-15T05:17:51;100999.16;;;10.33;52.01
54920;BME280;63804;53.120;8.764;2022-11-15T05:20:16;101003.59;;;10.37;52.05
54920;BME280;63804;53.120;8.764;2022-11-15T05:22:42;101001.22;;;10.36;51.93
54920;BME280;63804;53.120;8.764;2022-11-15T05:25:08;100989.75;;;10.43;51.91
54920;BME280;63804;53.120;8.764;2022-11-15T05:27:34;100991.91;;;10.37;52.21
54920;BME280;63804;53.120;8.764;2022-11-15T05:30:00;100984.06;;;10.35;52.59
54920;BME280;63804;53.120;8.764;2022-11-15T05:32:26;100993.59;;;10.42;52.25
54920;BME280;63804;53.120;8.764;2022-11-15T05:34:54;100979.75;;;10.47;52.19
54920;BME280;63804;53.120;8.764;2022-11-15T05:37:20;100971.56;;;10.47;52.27
54920;BME280;63804;53.120;8.764;2022-11-15T05:39:46;100974.66;;;10.45;52.40
54920;BME280;63804;53.120;8.764;2022-11-15T05:42:13;100967.03;;;10.51;52.12
54920;BME280;63804;53.120;8.764;2022-11-15T05:44:42;100984.53;;;10.50;52.05
54920;BME280;63804;53.120;8.764;2022-11-15T05:47:12;100982.47;;;10.47;52.43
54920;BME280;63804;53.120;8.764;2022-11-15T05:49:42;100980.22;;;10.49;52.43
54920;BME280;63804;53.120;8.764;2022-11-15T05:52:11;100977.75;;;10.56;52.38
54920;BME280;63804;53.120;8.764;2022-11-15T05:54:38;100970.22;;;10.53;52.32
54920;BME280;63804;53.120;8.764;2022-11-15T05:57:05;100975.09;;;10.47;52.64
54920;BME280;63804;53.120;8.764;2022-11-15T05:59:31;100981.34;;;10.48;52.65
54920;BME280;63804;53.120;8.764;2022-11-15T06:01:58;100979.75;;;10.47;52.97
54920;BME280;63804;53.120;8.764;2022-11-15T06:04:23;100969.31;;;10.49;52.63
54920;BME280;63804;53.120;8.764;2022-11-15T06:06:49;100982.63;;;10.50;53.04
54920;BME280;63804;53.120;8.764;2022-11-15T06:09:15;100981.59;;;10.55;52.85
54920;BME280;63804;53.120;8.764;2022-11-15T06:11:40;100983.44;;;10.63;52.80
54920;BME280;63804;53.120;8.764;2022-11-15T06:14:06;100986.66;;;10.65;52.80
54920;BME280;63804;53.120;8.764;2022-11-15T06:16:32;100979.38;;;10.69;52.51
54920;BME280;63804;53.120;8.764;2022-11-15T06:18:58;100978.59;;;10.69;52.72
54920;BME280;63804;53.120;8.764;2022-11-15T06:21:23;100979.59;;;10.64;52.97
54920;BME280;63804;53.120;8.764;2022-11-15T06:23:49;100977.97;;;10.63;52.91
54920;BME280;63804;53.120;8.764;2022-11-15T06:26:15;100991.28;;;10.65;52.97
54920;BME280;63804;53.120;8.764;2022-11-15T06:28:40;100997.69;;;10.69;53.05
54920;BME280;63804;53.120;8.764;2022-11-15T06:31:08;100992.22;;;10.69;53.12
54920;BME280;63804;53.120;8.764;2022-11-15T06:33:34;101000.88;;;10.71;53.24
54920;BME280;63804;53.120;8.764;2022-11-15T06:36:05;100997.34;;;10.70;53.20
54920;BME280;63804;53.120;8.764;2022-11-15T06:38:31;100997.69;;;10.69;53.56
54920;BME280;63804;53.120;8.764;2022-11-15T06:41:05;100999.94;;;10.67;53.44
54920;BME280;63804;53.120;8.764;2022-11-15T06:43:32;101001.22;;;10.69;53.50
54920;BME280;63804;53.120;8.764;2022-11-15T06:46:01;100997.03;;;10.72;53.46
54920;BME280;63804;53.120;8.764;2022-11-15T06:48:28;100996.19;;;10.71;53.48
54920;BME280;63804;53.120;8.764;2022-11-15T06:50:56;101004.22;;;10.77;53.50
54920;BME280;63804;53.120;8.764;2022-11-15T06:53:22;101006.59;;;10.78;53.26
54920;BME280;63804;53.120;8.764;2022-11-15T06:55:48;100997.41;;;10.83;53.45
54920;BME280;63804;53.120;8.764;2022-11-15T06:58:14;100988.75;;;10.81;53.43
54920;BME280;63804;53.120;8.764;2022-11-15T07:00:40;100996.72;;;10.86;53.51
54920;BME280;63804;53.120;8.764;2022-11-15T07:03:06;101002.66;;;10.88;53.61
54920;BME280;63804;53.120;8.764;2022-11-15T07:05:32;101000.25;;;10.86;53.29
54920;BME280;63804;53.120;8.764;2022-11-15T07:07:59;100999.47;;;10.86;53.41
54920;BME280;63804;53.120;8.764;2022-11-15T07:10:25;101006.97;;;10.89;53.64
54920;BME280;63804;53.120;8.764;2022-11-15T07:12:51;101001.97;;;10.91;53.60
54920;BME280;63804;53.120;8.764;2022-11-15T07:15:24;101005.38;;;10.88;53.72
54920;BME280;63804;53.120;8.764;2022-11-15T07:17:50;101000.16;;;10.95;53.58
54920;BME280;63804;53.120;8.764;2022-11-15T07:20:17;101009.38;;;10.90;53.84
54920;BME280;63804;53.120;8.764;2022-11-15T07:22:43;101003.22;;;10.93;53.78
54920;BME280;63804;53.120;8.764;2022-11-15T07:25:11;101007.22;;;10.96;54.06
54920;BME280;63804;53.120;8.764;2022-11-15T07:27:37;101010.06;;;11.00;53.67
54920;BME280;63804;53.120;8.764;2022-11-15T07:30:04;101000.06;;;11.04;53.97
54920;BME280;63804;53.120;8.764;2022-11-15T07:32:30;101001.97;;;11.03;54.04
54920;BME280;63804;53.120;8.764;2022-11-15T07:34:56;101004.50;;;11.08;53.75
54920;BME280;63804;53.120;8.764;2022-11-15T07:37:21;101004.59;;;11.12;54.10
54920;BME280;63804;53.120;8.764;2022-11-15T07:39:47;101008.72;;;11.18;53.70
54920;BME280;63804;53.120;8.764;2022-11-15T07:42:13;101007.81;;;11.26;53.83
54920;BME280;63804;53.120;8.764;2022-11-15T07:44:57;101006.91;;;11.35;54.29
54920;BME280;63804;53.120;8.764;2022-11-15T07:47:23;101008.50;;;11.36;53.70
54920;BME280;63804;53.120;8.764;2022-11-15T07:49:48;101002.34;;;11.39;53.68
54920;BME280;63804;53.120;8.764;2022-11-15T07:52:14;101008.28;;;11.41;53.64
54920;BME280;63804;53.120;8.764;2022-11-15T07:54:40;101005.78;;;11.48;53.65
54920;BME280;63804;53.120;8.764;2022-11-15T07:57:06;101010.56;;;11.51;53.37
54920;BME280;63804;53.120;8.764;2022-11-15T07:59:32;101007.38;;;11.49;53.72
54920;BME280;63804;53.120;8.764;2022-11-15T08:01:58;101009.28;;;11.48;53.69
54920;BME280;63804;53.120;8.764;2022-11-15T08:04:24;101007.03;;;11.51;53.60
54920;BME280;63804;53.120;8.764;2022-11-15T08:06:49;101003.16;;;11.52;53.66
54920;BME280;63804;53.120;8.764;2022-11-15T08:09:15;100997.34;;;11.53;53.81
54920;BME280;63804;53.120;8.764;2022-11-15T08:11:41;101001.00;;;11.57;53.76
54920;BME280;63804;53.120;8.764;2022-11-15T08:14:06;101004.63;;;11.61;53.62
54920;BME280;63804;53.120;8.764;2022-11-15T08:16:32;101007.00;;;11.63;53.62
54920;BME280;63804;53.120;8.764;2022-11-15T08:18:58;101008.63;;;11.64;53.85
54920;BME280;63804;53.120;8.764;2022-11-15T08:21:24;101007.91;;;11.67;53.60
54920;BME280;63804;53.120;8.764;2022-11-15T08:23:49;101009.50;;;11.68;53.97
54920;BME280;63804;53.120;8.764;2022-11-15T08:26:15;101006.09;;;11.71;53.61
54920;BME280;63804;53.120;8.764;2022-11-15T08:28:42;101011.22;;;11.73;53.47
54920;BME280;63804;53.120;8.764;2022-11-15T08:31:13;100999.69;;;11.79;53.56
54920;BME280;63804;53.120;8.764;2022-11-15T08:33:39;101007.31;;;11.74;53.86
54920;BME280;63804;53.120;8.764;2022-11-15T08:36:05;101008.81;;;11.83;53.45
54920;BME280;63804;53.120;8.764;2022-11-15T08:38:30;101010.88;;;11.87;53.40
54920;BME280;63804;53.120;8.764;2022-11-15T08:41:04;101013.16;;;11.84;53.57
54920;BME280;63804;53.120;8.764;2022-11-15T08:43:31;101017.47;;;11.85;53.84
54920;BME280;63804;53.120;8.764;2022-11-15T08:45:57;101008.81;;;11.83;53.75
54920;BME280;63804;53.120;8.764;2022-11-15T08:48:23;101005.41;;;11.87;53.72
54920;BME280;63804;53.120;8.764;2022-11-15T08:50:49;100998.56;;;11.93;53.41
54920;BME280;63804;53.120;8.764;2022-11-15T08:53:14;101008.34;;;11.94;53.55
54920;BME280;63804;53.120;8.764;2022-11-15T08:55:40;101005.03;;;12.00;53.29
54920;BME280;63804;53.120;8.764;2022-11-15T08:58:06;101006.28;;;12.03;53.50
54920;BME280;63804;53.120;8.764;2022-11-15T09:00:33;101012.19;;;12.05;53.29
54920;BME280;63804;53.120;8.764;2022-11-15T09:03:06;101014.00;;;12.13;53.33
54920;BME280;63804;53.120;8.764;2022-11-15T09:05:35;101004.75;;;12.18;53.25
54920;BME280;63804;53.120;8.764;2022-11-15T09:08:01;101009.19;;;12.22;52.90
54920;BME280;63804;53.120;8.764;2022-11-15T09:10:27;101001.53;;;12.28;52.97
54920;BME280;63804;53.120;8.764;2022-11-15T09:12:52;101007.44;;;12.30;52.75
54920;BME280;63804;53.120;8.764;2022-11-15T09:15:18;101003.66;;;12.35;52.79
54920;BME280;63804;53.120;8.764;2022-11-15T09:17:45;101011.44;;;12.33;52.85
54920;BME280;63804;53.120;8.764;2022-11-15T09:20:10;101008.69;;;12.33;52.85
54920;BME280;63804;53.120;8.764;2022-11-15T09:22:36;101007.88;;;12.32;53.05
54920;BME280;63804;53.120;8.764;2022-11-15T09:25:04;101007.44;;;12.30;53.13
54920;BME280;63804;53.120;8.764;2022-11-15T09:27:30;101005.06;;;12.29;53.03
54920;BME280;63804;53.120;8.764;2022-11-15T09:29:56;101005.88;;;12.29;53.36
54920;BME280;63804;53.120;8.764;2022-11-15T09:32:21;101006.47;;;12.10;53.55
54920;BME280;63804;53.120;8.764;2022-11-15T09:34:50;101012.63;;;12.19;53.36
54920;BME280;63804;53.120;8.764;2022-11-15T09:37:16;101009.66;;;12.25;53.38
54920;BME280;63804;53.120;8.764;2022-11-15T09:39:41;101008.25;;;12.31;53.23
54920;BME280;63804;53.120;8.764;2022-11-15T09:42:25;101004.25;;;12.28;53.42
54920;BME280;63804;53.120;8.764;2022-11-15T09:50:36;100994.94;;;12.45;53.02
54920;BME280;63804;53.120;8.764;2022-11-15T09:53:04;101000.47;;;12.61;52.98
54920;BME280;63804;53.120;8.764;2022-11-15T09:55:43;100995.56;;;12.83;52.52
54920;BME280;63804;53.120;8.764;2022-11-15T09:58:26;100997.81;;;12.93;52.33
54920;BME280;63804;53.120;8.764;2022-11-15T10:00:55;100989.28;;;12.82;52.41
54920;BME280;63804;53.120;8.764;2022-11-15T10:03:33;100991.41;;;12.73;52.63
54920;BME280;63804;53.120;8.764;2022-11-15T10:06:01;100990.84;;;12.67;52.69
54920;BME280;63804;53.120;8.764;2022-11-15T10:11:20;100991.19;;;12.66;52.82
54920;BME280;63804;53.120;8.764;2022-11-15T10:13:47;100988.91;;;12.68;52.60
54920;BME280;63804;53.120;8.764;2022-11-15T10:19:47;100986.63;;;12.86;52.38
54920;BME280;63804;53.120;8.764;2022-11-15T10:24:43;100970.56;;;12.84;52.39
54920;BME280;63804;53.120;8.764;2022-11-15T10:27:13;100977.63;;;12.85;52.64
54920;BME280;63804;53.120;8.764;2022-11-15T10:29:47;100969.94;;;12.75;52.78
54920;BME280;63804;53.120;8.764;2022-11-15T10:32:15;100973.53;;;12.79;52.59
54920;BME280;63804;53.120;8.764;2022-11-15T10:34:41;100976.75;;;12.81;52.59
54920;BME280;63804;53.120;8.764;2022-11-15T10:37:07;100965.09;;;12.84;52.57
54920;BME280;63804;53.120;8.764;2022-11-15T10:39:33;100957.41;;;12.90;52.54
54920;BME280;63804;53.120;8.764;2022-11-15T10:42:18;100955.41;;;13.03;52.20
54920;BME280;63804;53.120;8.764;2022-11-15T10:44:50;100946.28;;;13.14;52.02
54920;BME280;63804;53.120;8.764;2022-11-15T10:50:26;100936.38;;;13.10;52.29
54920;BME280;63804;53.120;8.764;2022-11-15T10:52:52;100935.94;;;13.08;52.50
54920;BME280;63804;53.120;8.764;2022-11-15T10:55:25;100924.44;;;13.02;52.49
54920;BME280;63804;53.120;8.764;2022-11-15T10:57:53;100920.63;;;13.07;52.29
54920;BME280;63804;53.120;8.764;2022-11-15T11:03:05;100919.09;;;13.41;51.93
54920;BME280;63804;53.120;8.764;2022-11-15T11:05:39;100917.28;;;13.49;51.57
54920;BME280;63804;53.120;8.764;2022-11-15T11:08:23;100911.72;;;13.45;51.71
54920;BME280;63804;53.120;8.764;2022-11-15T11:16:19;100909.19;;;13.37;51.69
54920;BME280;63804;53.120;8.764;2022-11-15T11:27:16;100898.69;;;13.58;51.44
54920;BME280;63804;53.120;8.764;2022-11-15T11:32:34;100890.59;;;13.65;51.55
54920;BME280;63804;53.120;8.764;2022-11-15T11:37:52;100882.44;;;13.69;51.47
54920;BME280;63804;53.120;8.764;2022-11-15T11:48:13;100869.25;;;13.75;51.12
54920;BME280;63804;53.120;8.764;2022-11-15T11:50:42;100866.94;;;13.77;51.07
54920;BME280;63804;53.120;8.764;2022-11-15T11:53:37;100874.44;;;13.80;50.85
54920;BME280;63804;53.120;8.764;2022-11-15T11:56:19;100878.06;;;13.84;50.89
54920;BME280;63804;53.120;8.764;2022-11-15T11:58:47;100873.38;;;13.84;50.57
54920;BME280;63804;53.120;8.764;2022-11-15T12:06:59;100867.00;;;13.80;50.90
54920;BME280;63804;53.120;8.764;2022-11-15T12:09:59;100877.72;;;13.85;50.61
54920;BME280;63804;53.120;8.764;2022-11-15T12:13:02;100873.53;;;13.92;50.34
54920;BME280;63804;53.120;8.764;2022-11-15T12:15:39;100872.81;;;13.95;50.08
54920;BME280;63804;53.120;8.764;2022-11-15T12:18:12;100864.22;;;13.96;50.40
54920;BME280;63804;53.120;8.764;2022-11-15T12:20:49;100868.09;;;13.95;50.31
54920;BME280;63804;53.120;8.764;2022-11-15T12:23:28;100858.72;;;13.96;50.25
54920;BME280;63804;53.120;8.764;2022-11-15T12:26:05;100858.28;;;13.94;50.16
54920;BME280;63804;53.120;8.764;2022-11-15T12:28:43;100842.25;;;13.96;50.28
54920;BME280;63804;53.120;8.764;2022-11-15T12:33:44;100836.03;;;13.99;50.16
54920;BME280;63804;53.120;8.764;2022-11-15T12:38:59;100830.63;;;14.03;50.12
54920;BME280;63804;53.120;8.764;2022-11-15T12:41:31;100826.75;;;14.07;49.89
54920;BME280;63804;53.120;8.764;2022-11-15T12:43:57;100824.31;;;14.02;49.99
54920;BME280;63804;53.120;8.764;2022-11-15T12:49:01;100819.50;;;13.96;50.08
54920;BME280;63804;53.120;8.764;2022-11-15T13:02:44;100808.88;;;13.94;49.40
54920;BME280;63804;53.120;8.764;2022-11-15T13:13:08;100795.84;;;14.34;47.89
54920;BME280;63804;53.120;8.764;2022-11-15T13:15:53;100794.19;;;14.29;47.97
54920;BME280;63804;53.120;8.764;2022-11-15T13:20:59;100780.97;;;14.35;47.34
54920;BME280;63804;53.120;8.764;2022-11-15T13:23:25;100789.56;;;14.33;47.68
54920;BME280;63804;53.120;8.764;2022-11-15T13:31:42;100789.75;;;14.21;47.93
54920;BME280;63804;53.120;8.764;2022-11-15T13:36:43;100796.72;;;14.15;47.13
54920;BME280;63804;53.120;8.764;2022-11-15T13:39:32;100793.47;;;14.09;46.14
54920;BME280;63804;53.120;8.764;2022-11-15T13:41:59;100800.13;;;14.08;46.70
54920;BME280;63804;53.120;8.764;2022-11-15T13:44:34;100787.13;;;14.05;46.31
54920;BME280;63804;53.120;8.764;2022-11-15T13:47:14;100784.63;;;13.96;46.05
54920;BME280;63804;53.120;8.764;2022-11-15T13:49:40;100777.59;;;13.99;46.08
54920;BME280;63804;53.120;8.764;2022-11-15T13:52:15;100782.69;;;13.97;45.60
54920;BME280;63804;53.120;8.764;2022-11-15T13:55:13;100785.78;;;13.95;44.99
54920;BME280;63804;53.120;8.764;2022-11-15T13:57:43;100787.44;;;14.00;45.74
54920;BME280;63804;53.120;8.764;2022-11-15T14:03:18;100779.69;;;14.05;45.62
54920;BME280;63804;53.120;8.764;2022-11-15T14:08:28;100777.34;;;14.07;45.44
54920;BME280;63804;53.120;8.764;2022-11-15T14:11:26;100778.13;;;14.04;44.58
54920;BME280;63804;53.120;8.764;2022-11-15T14:14:13;100775.66;;;13.99;44.17
54920;BME280;63804;53.120;8.764;2022-11-15T14:16:43;100781.03;;;13.92;45.31
54920;BME280;63804;53.120;8.764;2022-11-15T14:27:42;100765.50;;;13.80;45.38
54920;BME280;63804;53.120;8.764;2022-11-15T14:30:17;100756.47;;;13.80;45.41
54920;BME280;63804;53.120;8.764;2022-11-15T14:32:48;100770.56;;;13.78;45.44
54920;BME280;63804;53.120;8.764;2022-11-15T14:35:21;100756.34;;;13.73;45.81
54920;BME280;63804;53.120;8.764;2022-11-15T14:37:47;100753.16;;;13.70;45.83
54920;BME280;63804;53.120;8.764;2022-11-15T14:40:15;100762.06;;;13.64;46.08
54920;BME280;63804;53.120;8.764;2022-11-15T14:42:43;100767.06;;;13.58;46.09
54920;BME280;63804;53.120;8.764;2022-11-15T14:45:18;100763.44;;;13.54;46.21
54920;BME280;63804;53.120;8.764;2022-11-15T14:47:44;100759.13;;;13.53;46.12
54920;BME280;63804;53.120;8.764;2022-11-15T14:50:15;100764.09;;;13.47;46.48
54920;BME280;63804;53.120;8.764;2022-11-15T14:52:41;100762.88;;;13.45;46.04
54920;BME280;63804;53.120;8.764;2022-11-15T14:57:49;100755.97;;;13.31;46.70
54920;BME280;63804;53.120;8.764;2022-11-15T15:00:22;100760.13;;;13.25;46.60
54920;BME280;63804;53.120;8.764;2022-11-15T15:02:48;100751.06;;;13.21;46.83
54920;BME280;63804;53.120;8.764;2022-11-15T15:05:33;100748.16;;;13.14;46.91
54920;BME280;63804;53.120;8.764;2022-11-15T15:07:59;100750.31;;;13.05;47.34
54920;BME280;63804;53.120;8.764;2022-11-15T15:10:29;100743.97;;;13.01;47.52
54920;BME280;63804;53.120;8.764;2022-11-15T15:12:56;100737.63;;;12.96;47.50
54920;BME280;63804;53.120;8.764;2022-11-15T15:15:24;100743.03;;;12.93;47.47
54920;BME280;63804;53.120;8.764;2022-11-15T15:17:50;100742.22;;;12.92;47.63
54920;BME280;63804;53.120;8.764;2022-11-15T15:20:16;100737.91;;;12.91;47.76
54920;BME280;63804;53.120;8.764;2022-11-15T15:22:42;100734.19;;;12.84;47.55
54920;BME280;63804;53.120;8.764;2022-11-15T15:27:49;100737.41;;;12.70;47.96